Time;durP1;ratioP1;P1;durP2;ratioP2;P2;SDS_P1;SDS_P2;PMS_P1;PMS_P2;Temp;Humidity;BMP_temperature;BMP_pressure;BME280_temperature;BME280_humidity;BME280_pressure;Samples;Min_cycle;Max_cycle;Signal;HPM_P1;HPM_P2
2021/03/23 00:02:19;;;;;;;15.03;7.97;;;;;;;7.76;69.25;97091.84;5128870;28;20166;-59
2021/03/23 00:04:45;;;;;;;12.17;7.90;;;;;;;7.78;69.66;97077.59;5128499;27;20177;-60
2021/03/23 00:07:10;;;;;;;12.43;8.07;;;;;;;7.84;69.08;97084.69;5127267;27;20254;-60
2021/03/23 00:09:35;;;;;;;10.17;8.50;;;;;;;7.79;69.92;97087.06;5109033;28;20198;-60
2021/03/23 00:12:01;;;;;;;12.73;8.43;;;;;;;7.73;70.62;97089.63;5124034;28;20179;-58
2021/03/23 00:14:26;;;;;;;11.37;8.07;;;;;;;7.86;69.44;97087.13;5133165;27;20265;-59
2021/03/23 00:16:51;;;;;;;10.43;7.47;;;;;;;7.89;69.76;97090.16;5133237;27;20707;-61
2021/03/23 00:19:17;;;;;;;14.00;8.50;;;;;;;7.89;69.16;97087.53;5133275;27;20244;-58
2021/03/23 00:21:43;;;;;;;16.10;8.60;;;;;;;7.89;69.33;97078.88;5126437;27;20565;-59
2021/03/23 00:24:10;;;;;;;12.00;8.20;;;;;;;7.78;69.20;97087.25;5117249;28;20206;-57
2021/03/23 00:26:35;;;;;;;11.80;8.50;;;;;;;7.75;70.39;97083.22;5125546;27;20415;-60
2021/03/23 00:29:01;;;;;;;17.90;7.70;;;;;;;7.85;70.16;97083.69;5137193;27;20485;-58
2021/03/23 00:31:32;;;;;;;12.07;8.73;;;;;;;7.91;70.35;97084.72;5137594;27;20198;-60
2021/03/23 00:33:59;;;;;;;9.67;7.40;;;;;;;7.95;70.08;97083.34;5137561;27;20163;-60
2021/03/23 00:36:29;;;;;;;12.33;8.10;;;;;;;8.00;69.81;97086.19;5137383;27;20431;-60
2021/03/23 00:38:55;;;;;;;9.90;8.17;;;;;;;7.91;69.50;97085.53;5136870;27;20423;-60
2021/03/23 00:41:22;;;;;;;9.80;7.37;;;;;;;7.73;70.47;97081.78;5129374;27;20413;-61
2021/03/23 00:43:47;;;;;;;11.00;7.90;;;;;;;7.77;70.36;97083.03;5137327;27;20534;-58
2021/03/23 00:46:13;;;;;;;11.50;8.30;;;;;;;7.76;70.36;97082.22;5137331;27;20483;-59
2021/03/23 00:48:38;;;;;;;14.47;8.20;;;;;;;7.71;71.16;97086.38;5136919;27;20581;-58
2021/03/23 00:51:04;;;;;;;15.37;8.60;;;;;;;7.84;70.41;97082.09;5137398;27;20163;-60
2021/03/23 00:53:29;;;;;;;12.10;8.33;;;;;;;7.88;70.41;97083.28;5135567;27;20313;-58
2021/03/23 00:55:55;;;;;;;10.30;7.43;;;;;;;7.88;70.80;97080.69;5119056;27;20180;-58
2021/03/23 00:58:20;;;;;;;14.03;8.47;;;;;;;7.79;70.36;97083.66;5134425;27;20218;-58
2021/03/23 01:00:45;;;;;;;13.10;8.40;;;;;;;7.90;70.29;97090.97;5116500;28;20305;-58
2021/03/23 01:03:11;;;;;;;11.93;8.13;;;;;;;7.85;71.24;97082.88;5116532;28;20162;-58
2021/03/23 01:05:37;;;;;;;17.63;9.73;;;;;;;7.87;71.20;97086.91;5117480;27;20228;-58
2021/03/23 01:08:04;;;;;;;12.10;9.20;;;;;;;7.85;70.33;97083.69;5115784;28;20200;-59
2021/03/23 01:10:31;;;;;;;11.87;8.47;;;;;;;7.88;70.52;97079.88;5117411;27;20402;-61
2021/03/23 01:12:57;;;;;;;13.87;9.57;;;;;;;7.91;70.61;97079.50;5116373;27;20393;-60
2021/03/23 01:15:30;;;;;;;15.40;9.53;;;;;;;7.73;71.08;97079.16;5136039;27;20771;-58
2021/03/23 01:17:55;;;;;;;10.33;7.60;;;;;;;7.87;71.36;97084.31;5136363;27;20458;-59
2021/03/23 01:20:23;;;;;;;10.47;7.73;;;;;;;7.80;70.86;97082.63;5137075;27;20482;-60
2021/03/23 01:22:49;;;;;;;16.40;8.60;;;;;;;7.88;71.08;97080.69;5135024;27;20700;-58
2021/03/23 01:25:15;;;;;;;12.43;8.50;;;;;;;7.85;71.54;97083.69;5134858;27;20492;-58
2021/03/23 01:27:44;;;;;;;11.60;9.33;;;;;;;7.89;71.01;97081.50;5115726;28;20160;-58
2021/03/23 01:30:10;;;;;;;16.07;9.07;;;;;;;7.95;71.56;97080.75;5115803;28;20755;-58
2021/03/23 01:32:37;;;;;;;13.30;9.30;;;;;;;7.97;71.63;97076.13;5116210;28;20400;-60
2021/03/23 01:35:03;;;;;;;14.27;10.50;;;;;;;7.91;71.32;97077.69;5120427;27;20418;-60
2021/03/23 01:37:29;;;;;;;14.87;9.33;;;;;;;7.94;71.46;97085.16;5136266;27;20448;-59
2021/03/23 01:39:54;;;;;;;14.33;9.10;;;;;;;7.96;71.12;97088.41;5135473;27;20500;-58
2021/03/23 01:42:20;;;;;;;13.20;9.67;;;;;;;7.95;71.42;97084.16;5116045;28;20170;-60
2021/03/23 01:45:07;;;;;;;13.77;9.90;;;;;;;7.96;71.97;97082.34;5115893;28;20174;-60
2021/03/23 01:47:32;;;;;;;14.10;9.03;;;;;;;8.02;71.65;97089.44;5115205;28;20428;-59
2021/03/23 01:49:58;;;;;;;15.30;9.63;;;;;;;8.04;71.39;97080.38;5121976;27;20442;-60
2021/03/23 01:52:27;;;;;;;12.10;9.30;;;;;;;8.04;71.61;97075.16;5136303;27;20158;-60
2021/03/23 01:55:00;;;;;;;13.80;9.80;;;;;;;7.96;72.19;97070.06;5133200;27;20248;-61
2021/03/23 01:57:27;;;;;;;12.70;9.30;;;;;;;7.96;71.45;97072.69;5115339;28;20461;-58
2021/03/23 01:59:55;;;;;;;15.80;9.60;;;;;;;7.91;71.49;97074.25;5115366;28;20453;-58
2021/03/23 02:02:26;;;;;;;16.00;10.40;;;;;;;7.76;72.76;97066.50;5128696;27;20431;-59
2021/03/23 02:04:52;;;;;;;12.43;9.60;;;;;;;7.77;72.57;97075.19;5136214;27;20410;-60
2021/03/23 02:07:18;;;;;;;17.40;11.23;;;;;;;7.79;72.56;97067.94;5135726;27;20479;-58
2021/03/23 02:09:43;;;;;;;14.70;10.83;;;;;;;7.82;72.05;97067.56;5130340;27;20232;-61
2021/03/23 02:12:14;;;;;;;19.50;11.87;;;;;;;7.80;72.44;97069.56;5115413;28;20404;-60
2021/03/23 02:14:43;;;;;;;19.30;11.30;;;;;;;7.70;72.77;97062.03;5114212;28;20595;-60
2021/03/23 02:17:19;;;;;;;15.63;10.77;;;;;;;7.75;72.53;97064.91;5115518;27;20461;-58
2021/03/23 02:19:44;;;;;;;14.60;10.83;;;;;;;7.84;72.59;97068.19;5115340;28;20465;-58
2021/03/23 02:22:32;;;;;;;19.17;12.60;;;;;;;7.78;73.42;97072.38;5113912;28;20400;-58
2021/03/23 02:24:58;;;;;;;17.30;12.17;;;;;;;7.77;73.34;97075.97;5115247;28;20168;-58
2021/03/23 02:27:26;;;;;;;20.93;12.60;;;;;;;7.82;73.09;97068.38;5114565;28;20395;-58
2021/03/23 02:29:55;;;;;;;21.43;12.27;;;;;;;7.83;72.57;97063.94;5121349;27;20451;-60
2021/03/23 02:32:20;;;;;;;20.33;13.77;;;;;;;7.84;72.48;97063.78;5117496;27;20480;-60
2021/03/23 02:34:46;;;;;;;21.80;13.73;;;;;;;7.89;72.66;97071.03;5114962;28;20856;-60
2021/03/23 02:37:12;;;;;;;22.40;12.30;;;;;;;7.90;72.96;97064.81;5114480;28;20614;-61
2021/03/23 02:39:38;;;;;;;22.60;15.23;;;;;;;7.89;72.18;97064.00;5114629;28;20185;-60
2021/03/23 02:42:05;;;;;;;20.43;13.93;;;;;;;7.87;72.80;97073.84;5113991;28;20162;-59
2021/03/23 02:44:47;;;;;;;25.33;14.63;;;;;;;7.88;72.62;97069.44;5115707;27;20569;-60
2021/03/23 02:47:15;;;;;;;21.83;15.13;;;;;;;7.92;72.96;97071.44;5113138;27;20442;-61
2021/03/23 02:49:41;;;;;;;27.43;16.50;;;;;;;7.86;73.07;97064.34;5114506;28;20423;-60
2021/03/23 02:52:08;;;;;;;25.30;16.50;;;;;;;7.85;73.69;97065.38;5114405;28;20427;-60
2021/03/23 02:54:33;;;;;;;25.00;16.80;;;;;;;7.85;73.30;97065.38;5114481;28;20239;-58
2021/03/23 02:56:59;;;;;;;26.10;17.00;;;;;;;7.88;73.19;97057.13;5113968;28;20509;-61
2021/03/23 02:59:24;;;;;;;25.73;16.10;;;;;;;7.82;73.52;97060.53;5121784;27;20555;-58
2021/03/23 03:01:49;;;;;;;22.63;16.13;;;;;;;7.82;73.31;97057.91;5134795;27;20174;-61
2021/03/23 03:04:15;;;;;;;25.13;16.03;;;;;;;7.67;73.93;97065.03;5135065;27;20598;-60
2021/03/23 03:06:41;;;;;;;26.90;17.30;;;;;;;7.69;74.53;97057.81;5134948;27;20214;-59
2021/03/23 03:09:06;;;;;;;22.93;16.03;;;;;;;7.59;74.60;97056.53;5134283;27;20182;-58
2021/03/23 03:11:32;;;;;;;26.87;17.50;;;;;;;7.60;74.77;97060.75;5134742;27;20170;-59
2021/03/23 03:13:58;;;;;;;24.03;17.03;;;;;;;7.60;74.28;97056.34;5129826;27;20953;-58
2021/03/23 03:16:24;;;;;;;24.70;16.87;;;;;;;7.60;74.87;97052.91;5134501;27;20903;-58
2021/03/23 03:18:49;;;;;;;23.87;15.63;;;;;;;7.55;74.38;97053.50;5129363;27;20445;-61
2021/03/23 03:21:15;;;;;;;24.20;15.90;;;;;;;7.52;75.43;97050.44;5114281;28;20170;-59
2021/03/23 03:23:40;;;;;;;26.40;16.70;;;;;;;7.50;74.62;97055.06;5113974;28;20648;-59
2021/03/23 03:26:06;;;;;;;27.80;15.87;;;;;;;7.50;75.38;97057.66;5113830;28;20642;-59
2021/03/23 03:28:34;;;;;;;25.57;16.93;;;;;;;7.52;74.59;97048.63;5114605;27;20598;-61
2021/03/23 03:31:00;;;;;;;23.93;17.23;;;;;;;7.51;74.67;97056.66;5121862;27;20430;-60
2021/03/23 03:33:26;;;;;;;28.03;16.80;;;;;;;7.53;74.61;97058.09;5132232;27;20753;-60
2021/03/23 03:35:52;;;;;;;25.23;16.23;;;;;;;7.36;75.90;97059.34;5113787;28;20163;-60
2021/03/23 03:38:19;;;;;;;23.43;16.10;;;;;;;7.44;74.94;97058.41;5129988;27;20814;-58
2021/03/23 03:40:54;;;;;;;28.60;16.87;;;;;;;7.30;76.39;97054.91;5133451;27;20168;-60
2021/03/23 03:43:22;;;;;;;29.33;17.30;;;;;;;7.32;76.19;97058.09;5134452;27;20855;-60
2021/03/23 03:45:48;;;;;;;23.60;16.13;;;;;;;7.19;76.58;97055.41;5134578;27;20408;-58
2021/03/23 03:48:13;;;;;;;27.83;18.40;;;;;;;7.18;76.76;97053.75;5133746;27;20427;-58
2021/03/23 03:50:39;;;;;;;26.27;17.57;;;;;;;7.23;76.38;97054.00;5133041;28;20421;-60
2021/03/23 03:53:04;;;;;;;30.20;16.90;;;;;;;6.95;77.05;97053.97;5118048;28;20177;-59
2021/03/23 03:55:33;;;;;;;27.00;16.90;;;;;;;7.17;77.29;97055.56;5130863;27;20199;-58
2021/03/23 03:57:59;;;;;;;25.10;16.97;;;;;;;7.06;77.15;97055.25;5137927;27;20196;-60
2021/03/23 04:00:27;;;;;;;27.57;17.03;;;;;;;7.01;76.98;97063.66;5136462;27;21984;-61
2021/03/23 04:02:52;;;;;;;25.97;16.93;;;;;;;6.90;77.71;97060.72;5138511;27;20166;-59
2021/03/23 04:05:38;;;;;;;26.97;16.87;;;;;;;6.91;78.01;97055.31;5138423;27;20498;-59
2021/03/23 04:08:05;;;;;;;24.50;16.30;;;;;;;6.92;78.12;97058.75;5136959;27;20221;-58
2021/03/23 04:10:30;;;;;;;25.60;17.30;;;;;;;6.80;78.53;97061.03;5120338;27;20513;-58
2021/03/23 04:12:56;;;;;;;28.97;17.17;;;;;;;6.89;78.36;97070.34;5117743;28;20954;-58
2021/03/23 04:15:28;;;;;;;23.30;16.40;;;;;;;6.82;78.69;97063.44;5132782;27;20177;-60
2021/03/23 04:17:54;;;;;;;28.33;16.77;;;;;;;6.69;78.43;97068.50;5137862;27;20202;-58
2021/03/23 04:20:20;;;;;;;26.43;17.03;;;;;;;6.89;78.45;97065.13;5137966;27;20406;-59
2021/03/23 04:22:46;;;;;;;27.97;17.33;;;;;;;6.79;78.76;97071.66;5138078;27;20628;-58
2021/03/23 04:25:13;;;;;;;30.13;17.37;;;;;;;6.74;78.67;97071.41;5120809;27;20423;-58
2021/03/23 04:27:39;;;;;;;26.13;16.77;;;;;;;6.84;78.63;97072.72;5117152;28;20176;-58
2021/03/23 04:30:06;;;;;;;25.63;17.30;;;;;;;7.04;77.91;97075.53;5117257;27;20793;-58
2021/03/23 04:32:32;;;;;;;24.50;16.53;;;;;;;6.81;78.39;97085.34;5117688;28;20169;-60
2021/03/23 04:34:57;;;;;;;26.30;15.97;;;;;;;6.94;77.99;97078.44;5117164;28;20429;-60
2021/03/23 04:37:23;;;;;;;28.00;16.47;;;;;;;7.13;77.41;97079.66;5116640;28;20276;-61
2021/03/23 04:39:48;;;;;;;27.40;17.00;;;;;;;6.96;78.01;97078.25;5132694;27;20211;-58
2021/03/23 04:42:14;;;;;;;26.07;16.20;;;;;;;7.14;76.72;97083.88;5130564;27;20178;-58
2021/03/23 04:44:39;;;;;;;25.60;17.17;;;;;;;7.13;77.03;97087.47;5117193;28;20222;-59
2021/03/23 04:47:05;;;;;;;26.23;16.73;;;;;;;7.20;77.37;97086.56;5116503;28;20185;-61
2021/03/23 04:49:30;;;;;;;24.63;16.00;;;;;;;7.33;76.25;97085.88;5116911;28;20198;-58
2021/03/23 04:51:56;;;;;;;24.90;15.70;;;;;;;7.20;76.37;97090.97;5116881;27;20410;-58
2021/03/23 04:54:21;;;;;;;25.43;16.87;;;;;;;7.21;76.34;97090.00;5130975;27;20633;-60
2021/03/23 04:56:47;;;;;;;26.30;17.47;;;;;;;7.27;76.67;97089.22;5131521;27;20242;-60
2021/03/23 04:59:12;;;;;;;28.70;18.13;;;;;;;7.24;76.24;97092.22;5116339;28;20556;-59
2021/03/23 05:01:41;;;;;;;25.07;16.87;;;;;;;7.21;76.65;97096.00;5115649;28;20203;-59
2021/03/23 05:04:12;;;;;;;25.07;16.77;;;;;;;7.22;76.20;97097.63;5116543;28;20650;-58
2021/03/23 05:06:37;;;;;;;28.80;16.73;;;;;;;7.28;75.70;97096.88;5117522;27;20817;-58
2021/03/23 05:09:03;;;;;;;32.40;17.67;;;;;;;7.27;76.49;97099.69;5117177;27;20447;-60
2021/03/23 05:11:30;;;;;;;29.03;17.00;;;;;;;7.30;76.24;97099.31;5126343;27;20576;-60
2021/03/23 05:13:56;;;;;;;21.00;15.03;;;;;;;7.38;76.36;97098.38;5124473;27;20419;-59
2021/03/23 05:16:22;;;;;;;24.47;15.60;;;;;;;7.28;76.54;97101.31;5121006;27;20966;-60
2021/03/23 05:18:49;;;;;;;25.30;17.57;;;;;;;7.34;75.71;97100.53;5136539;27;20222;-59
2021/03/23 05:21:14;;;;;;;22.00;15.87;;;;;;;7.40;75.76;97105.03;5137003;27;20165;-58
2021/03/23 05:23:40;;;;;;;27.23;16.23;;;;;;;7.43;75.59;97104.66;5136928;27;20748;-60
2021/03/23 05:26:06;;;;;;;24.47;15.70;;;;;;;7.42;75.81;97105.66;5118307;27;20573;-58
2021/03/23 05:28:32;;;;;;;26.67;17.50;;;;;;;7.37;76.00;97100.19;5116808;27;20193;-60
2021/03/23 05:30:58;;;;;;;28.40;17.17;;;;;;;7.42;75.53;97102.22;5116083;28;20415;-60
2021/03/23 05:33:25;;;;;;;29.40;17.90;;;;;;;7.48;75.47;97107.53;5116187;27;20219;-58
2021/03/23 05:35:51;;;;;;;25.77;16.00;;;;;;;7.38;74.93;97096.56;5116234;28;20410;-59
2021/03/23 05:38:17;;;;;;;26.77;16.23;;;;;;;7.35;75.23;97102.19;5123852;27;20938;-58
2021/03/23 05:40:47;;;;;;;25.40;14.87;;;;;;;7.32;75.37;97104.34;5136676;27;20889;-61
2021/03/23 05:43:44;;;;;;;26.73;16.83;;;;;;;7.28;75.80;97109.94;5126275;27;20785;-58
2021/03/23 05:46:19;;;;;;;26.77;17.27;;;;;;;7.47;76.01;97108.50;5115078;28;20425;-61
2021/03/23 05:49:19;;;;;;;26.17;16.00;;;;;;;7.48;75.66;97109.34;5121575;27;20438;-60
2021/03/23 05:51:55;;;;;;;29.97;18.70;;;;;;;7.54;75.31;97113.78;5125558;27;20415;-60
2021/03/23 05:54:33;;;;;;;23.80;15.87;;;;;;;7.64;75.36;97117.72;5116096;28;20411;-58
2021/03/23 05:57:06;;;;;;;28.73;17.93;;;;;;;7.64;75.29;97116.91;5115447;28;20564;-59
2021/03/23 05:59:46;;;;;;;22.80;15.20;;;;;;;7.66;74.83;97112.31;5115463;28;20423;-60
2021/03/23 06:02:24;;;;;;;29.10;17.20;;;;;;;7.70;75.12;97118.78;5115801;28;20401;-58
2021/03/23 06:05:01;;;;;;;24.17;16.70;;;;;;;7.76;74.68;97125.84;5115547;28;20403;-58
2021/03/23 06:07:35;;;;;;;28.20;17.60;;;;;;;7.79;74.24;97122.88;5133562;27;20421;-58
2021/03/23 06:10:01;;;;;;;26.17;16.83;;;;;;;7.84;74.61;97129.16;5116595;27;20503;-59
2021/03/23 06:12:29;;;;;;;23.80;16.73;;;;;;;7.84;74.35;97128.34;5115434;27;20507;-60
2021/03/23 06:15:20;;;;;;;29.83;18.00;;;;;;;7.75;74.88;97134.72;5115242;28;20165;-58
2021/03/23 06:18:14;;;;;;;25.83;15.70;;;;;;;7.82;74.15;97133.78;5113713;28;20855;-60
2021/03/23 06:20:46;;;;;;;28.20;17.93;;;;;;;7.89;74.27;97147.72;5120551;27;20422;-60
2021/03/23 06:23:17;;;;;;;26.73;16.30;;;;;;;7.87;73.73;97144.47;5134742;27;20441;-58
2021/03/23 06:25:46;;;;;;;29.40;17.30;;;;;;;7.92;74.09;97147.31;5135618;27;20447;-58
2021/03/23 06:28:34;;;;;;;29.30;18.40;;;;;;;7.98;73.97;97145.75;5135105;27;20419;-60
2021/03/23 06:31:43;;;;;;;27.47;17.80;;;;;;;7.98;73.38;97151.81;5134278;27;20776;-59
2021/03/23 06:34:25;;;;;;;27.23;15.77;;;;;;;8.07;73.19;97155.09;5101243;28;20429;-58
2021/03/23 06:36:51;;;;;;;33.27;18.40;;;;;;;8.09;73.36;97156.53;5132128;27;20447;-62
2021/03/23 06:39:17;;;;;;;27.13;16.80;;;;;;;8.11;73.04;97162.38;5135134;27;20432;-59
2021/03/23 06:42:03;;;;;;;27.50;16.10;;;;;;;8.07;73.50;97161.13;5135163;27;20166;-58
2021/03/23 06:44:41;;;;;;;31.40;17.70;;;;;;;8.12;73.61;97165.78;5124075;27;20987;-58
2021/03/23 06:47:37;;;;;;;28.80;16.50;;;;;;;8.06;72.88;97159.50;5114326;28;20417;-61
2021/03/23 06:50:22;;;;;;;29.83;18.60;;;;;;;8.19;73.17;97159.59;5133413;27;20438;-60
2021/03/23 06:53:09;;;;;;;25.73;17.53;;;;;;;8.10;72.92;97168.59;5135348;27;20399;-60
2021/03/23 06:55:36;;;;;;;28.50;18.70;;;;;;;8.11;73.71;97161.56;5126242;27;20832;-58
2021/03/23 06:58:09;;;;;;;26.33;17.67;;;;;;;8.15;73.47;97166.22;5112744;28;20460;-60
2021/03/23 07:00:36;;;;;;;28.00;18.33;;;;;;;8.07;73.51;97166.38;5114466;28;20899;-61
2021/03/23 07:03:10;;;;;;;27.50;17.53;;;;;;;8.00;73.55;97168.13;5114409;28;20399;-60
2021/03/23 07:05:39;;;;;;;27.40;17.70;;;;;;;7.82;74.18;97167.78;5114271;28;20468;-61
2021/03/23 07:08:07;;;;;;;27.40;17.50;;;;;;;7.91;74.78;97173.69;5113884;27;20420;-58
2021/03/23 07:10:36;;;;;;;29.23;17.87;;;;;;;7.95;73.65;97173.09;5115248;27;20434;-59
2021/03/23 07:13:03;;;;;;;30.47;19.10;;;;;;;7.95;74.56;97169.69;5114353;28;20759;-61
2021/03/23 07:15:33;;;;;;;26.63;19.37;;;;;;;8.03;73.38;97178.22;5123951;27;20415;-60
2021/03/23 07:18:11;;;;;;;29.57;18.43;;;;;;;8.10;73.36;97179.06;5115139;27;20457;-58
2021/03/23 07:20:41;;;;;;;26.90;18.93;;;;;;;8.18;73.48;97183.34;5115237;27;20749;-61
2021/03/23 07:23:28;;;;;;;31.63;18.10;;;;;;;8.19;73.02;97188.41;5114256;28;20401;-60
2021/03/23 07:25:55;;;;;;;35.43;19.20;;;;;;;7.90;73.63;97180.72;5114022;28;20382;-58
2021/03/23 07:28:34;;;;;;;31.40;18.33;;;;;;;8.07;74.31;97192.53;5113279;28;20787;-61
2021/03/23 07:31:14;;;;;;;26.60;18.00;;;;;;;8.21;73.29;97186.41;5115995;27;20440;-60
2021/03/23 07:34:03;;;;;;;32.40;20.37;;;;;;;8.24;73.24;97188.66;5114382;28;20470;-58
2021/03/23 07:36:34;;;;;;;32.90;19.13;;;;;;;8.29;72.85;97191.53;5118850;27;20926;-57
2021/03/23 07:39:05;;;;;;;29.60;18.83;;;;;;;8.13;73.15;97199.63;5124172;27;20443;-58
2021/03/23 07:41:37;;;;;;;33.30;20.43;;;;;;;8.37;72.56;97202.88;5134287;27;20818;-58
2021/03/23 07:44:20;;;;;;;32.00;20.40;;;;;;;8.41;72.54;97196.25;5134369;27;20761;-60
2021/03/23 07:46:55;;;;;;;32.67;21.10;;;;;;;8.48;73.26;97202.34;5125025;28;20435;-61
2021/03/23 07:49:59;;;;;;;33.53;19.50;;;;;;;8.62;72.26;97193.56;5114750;28;20474;-61
2021/03/23 07:52:27;;;;;;;29.83;19.47;;;;;;;8.64;71.52;97194.97;5071956;28;20468;-59
2021/03/23 07:54:58;;;;;;;29.27;18.57;;;;;;;8.56;72.28;97197.75;5113626;28;20459;-58
2021/03/23 07:57:42;;;;;;;31.03;19.93;;;;;;;8.61;71.72;97200.59;5114258;28;20955;-58
2021/03/23 08:00:16;;;;;;;24.00;16.60;;;;;;;8.60;71.88;97206.03;5134398;27;20494;-60
2021/03/23 08:02:54;;;;;;;33.40;20.10;;;;;;;8.63;72.16;97198.59;5134257;27;20446;-60
2021/03/23 08:05:48;;;;;;;30.77;17.53;;;;;;;8.80;71.38;97206.97;5132347;27;20410;-59
2021/03/23 08:08:17;;;;;;;24.50;17.27;;;;;;;8.87;71.78;97205.19;5133732;27;20963;-60
2021/03/23 08:11:01;;;;;;;27.03;18.20;;;;;;;8.95;71.71;97205.03;5134240;27;20406;-60
2021/03/23 08:13:59;;;;;;;32.93;18.57;;;;;;;9.11;71.22;97212.56;5121357;28;20464;-59
2021/03/23 08:17:07;;;;;;;28.60;17.90;;;;;;;9.17;70.57;97209.16;5114371;28;20407;-60
2021/03/23 08:19:35;;;;;;;24.70;16.23;;;;;;;9.25;69.23;97209.81;5095154;27;20933;-59
2021/03/23 08:22:13;;;;;;;26.60;16.97;;;;;;;9.33;69.31;97216.66;5120542;28;20513;-59
2021/03/23 08:25:03;;;;;;;24.93;15.90;;;;;;;9.29;69.55;97211.00;5113547;28;20940;-58
2021/03/23 08:28:06;;;;;;;23.63;16.57;;;;;;;9.25;69.08;97209.00;5115358;28;20444;-60
2021/03/23 08:30:40;;;;;;;26.57;17.90;;;;;;;9.23;68.79;97211.81;5132144;28;20479;-60
2021/03/23 08:33:24;;;;;;;29.27;17.93;;;;;;;9.14;68.88;97212.16;5129614;28;20414;-59
2021/03/23 08:36:31;;;;;;;28.63;18.30;;;;;;;9.20;69.21;97212.19;5129482;27;20451;-60
2021/03/23 08:39:23;;;;;;;24.20;16.23;;;;;;;9.13;69.32;97215.81;5127441;27;20616;-59
2021/03/23 08:42:18;;;;;;;28.80;16.50;;;;;;;8.99;69.22;97214.09;5120480;27;20502;-59
2021/03/23 08:44:45;;;;;;;27.10;17.23;;;;;;;9.06;68.97;97212.31;5112987;28;20399;-59
2021/03/23 08:47:34;;;;;;;30.90;17.77;;;;;;;8.99;69.32;97217.53;5113133;28;20419;-59
2021/03/23 08:50:44;;;;;;;26.70;17.33;;;;;;;9.24;68.47;97215.22;5104959;28;20441;-60
2021/03/23 08:53:28;;;;;;;31.80;19.40;;;;;;;9.30;68.37;97219.69;5106512;27;20439;-60
2021/03/23 08:55:55;;;;;;;25.23;17.00;;;;;;;9.34;68.55;97223.53;5115636;27;20438;-61
2021/03/23 08:58:54;;;;;;;26.53;16.23;;;;;;;9.14;68.35;97220.03;5133576;27;20454;-59
2021/03/23 09:01:25;;;;;;;23.50;16.60;;;;;;;9.49;67.62;97224.22;5137564;27;20404;-59
2021/03/23 09:04:04;;;;;;;28.47;16.70;;;;;;;9.65;67.62;97225.66;5137408;27;20745;-59
2021/03/23 09:07:17;;;;;;;23.97;15.87;;;;;;;9.83;67.53;97225.91;5135418;27;20936;-58
2021/03/23 09:09:45;;;;;;;25.60;16.10;;;;;;;9.93;66.80;97229.75;5110886;27;20534;-59
2021/03/23 09:12:32;;;;;;;21.17;15.60;;;;;;;9.93;66.25;97232.38;5117629;27;20416;-60
2021/03/23 09:15:21;;;;;;;15.97;10.77;;;;;;;9.90;63.72;97227.53;5116794;28;20407;-57
2021/03/23 09:18:01;;;;;;;17.40;10.77;;;;;;;9.94;62.42;97228.75;5114734;28;20456;-58
2021/03/23 09:20:32;;;;;;;12.97;8.80;;;;;;;10.04;61.21;97226.53;5116419;28;20728;-59
2021/03/23 09:23:20;;;;;;;14.60;9.30;;;;;;;9.99;60.85;97233.38;5117484;27;20433;-60
2021/03/23 09:25:59;;;;;;;9.07;6.53;;;;;;;10.12;59.39;97231.63;5118767;27;20763;-59
2021/03/23 09:28:31;;;;;;;11.07;8.17;;;;;;;10.28;58.95;97227.78;5136536;27;20811;-59
2021/03/23 09:31:04;;;;;;;15.57;10.50;;;;;;;10.42;59.02;97223.38;5128285;27;20570;-59
2021/03/23 09:33:43;;;;;;;14.23;9.37;;;;;;;10.58;59.36;97222.94;5116210;28;20404;-59
2021/03/23 09:36:10;;;;;;;15.00;9.97;;;;;;;10.52;58.07;97218.50;5117676;27;20411;-59
2021/03/23 09:38:52;;;;;;;14.90;9.70;;;;;;;10.50;57.58;97223.94;5136020;27;20474;-60
2021/03/23 09:41:20;;;;;;;10.03;8.30;;;;;;;10.63;57.44;97210.00;5135111;27;20815;-60
2021/03/23 09:43:47;;;;;;;12.83;8.00;;;;;;;10.59;57.62;97208.78;5134759;27;20473;-61
2021/03/23 09:46:40;;;;;;;10.00;7.53;;;;;;;10.57;54.72;97211.59;5134512;27;20981;-61
2021/03/23 09:49:16;;;;;;;9.50;7.63;;;;;;;10.53;55.01;97210.41;5119070;27;20821;-59
2021/03/23 09:51:46;;;;;;;10.80;7.67;;;;;;;10.52;54.49;97211.41;5131388;27;20416;-59
2021/03/23 09:54:33;;;;;;;7.03;6.30;;;;;;;10.52;54.78;97207.97;5115849;28;20443;-59
2021/03/23 09:57:20;;;;;;;7.00;5.87;;;;;;;10.68;55.51;97199.66;5112899;27;20690;-61
2021/03/23 09:59:56;;;;;;;6.10;4.17;;;;;;;10.48;52.23;97199.69;5111788;28;20443;-63
2021/03/23 10:02:35;;;;;;;7.07;4.90;;;;;;;10.52;52.57;97205.34;5112065;28;20419;-61
2021/03/23 10:05:19;;;;;;;5.07;4.50;;;;;;;10.52;52.26;97215.84;5120530;27;20435;-63
2021/03/23 10:07:47;;;;;;;6.60;4.60;;;;;;;10.68;53.17;97207.53;5121003;27;20526;-64
2021/03/23 10:10:13;;;;;;;3.93;3.27;;;;;;;10.68;52.25;97203.09;5111626;28;20408;-60
2021/03/23 10:12:39;;;;;;;7.03;3.90;;;;;;;10.75;51.87;97208.34;5121610;27;20751;-60
2021/03/23 10:15:28;;;;;;;5.33;4.00;;;;;;;10.78;51.92;97194.81;5136287;27;20634;-60
2021/03/23 10:18:16;;;;;;;5.97;4.10;;;;;;;10.73;51.97;97203.28;5134571;27;20453;-60
2021/03/23 10:20:41;;;;;;;5.00;3.90;;;;;;;10.62;51.02;97205.72;5135560;27;20409;-60
2021/03/23 10:23:07;;;;;;;4.97;4.03;;;;;;;10.64;51.17;97204.53;5135393;27;20436;-63
2021/03/23 10:25:33;;;;;;;4.67;3.80;;;;;;;10.63;51.38;97199.47;5135839;27;20172;-63
2021/03/23 10:28:01;;;;;;;6.93;4.47;;;;;;;10.50;53.10;97208.19;5120165;27;20417;-60
2021/03/23 10:30:38;;;;;;;7.17;5.40;;;;;;;10.63;51.92;97204.72;5115250;27;20171;-62
2021/03/23 10:33:29;;;;;;;6.10;5.40;;;;;;;10.63;52.06;97202.09;5118039;27;20448;-63
2021/03/23 10:35:58;;;;;;;10.80;6.00;;;;;;;10.62;52.30;97192.59;5125034;27;20912;-63
2021/03/23 10:38:27;;;;;;;8.47;5.30;;;;;;;10.71;51.76;97197.44;5113033;28;20472;-61
2021/03/23 10:41:22;;;;;;;9.77;6.07;;;;;;;10.82;50.71;97190.72;5114734;28;20457;-62
2021/03/23 10:43:51;;;;;;;6.37;4.90;;;;;;;10.65;50.95;97192.19;5114850;28;20492;-63
2021/03/23 10:46:40;;;;;;;7.80;5.23;;;;;;;10.40;51.52;97194.63;5115705;27;20921;-63
2021/03/23 10:49:12;;;;;;;8.50;5.27;;;;;;;10.63;51.60;97195.03;5114421;27;20952;-62
2021/03/23 10:51:43;;;;;;;7.00;5.23;;;;;;;10.68;52.19;97197.84;5114496;28;20474;-61
2021/03/23 10:54:12;;;;;;;8.17;6.33;;;;;;;10.76;52.57;97194.97;5114931;28;20408;-61
2021/03/23 10:56:51;;;;;;;10.83;6.23;;;;;;;10.55;50.47;97200.50;5114381;28;20752;-61
2021/03/23 10:59:19;;;;;;;8.40;6.17;;;;;;;10.49;51.07;97200.50;5115290;27;20441;-63
2021/03/23 11:02:30;;;;;;;8.73;6.10;;;;;;;10.18;51.60;97207.19;5115459;27;20416;-62
2021/03/23 11:05:08;;;;;;;7.57;5.50;;;;;;;10.32;52.92;97210.63;5111627;28;20755;-61
2021/03/23 11:07:37;;;;;;;8.17;6.03;;;;;;;10.60;52.68;97199.91;5129401;27;20419;-61
2021/03/23 11:10:09;;;;;;;6.90;5.43;;;;;;;10.61;52.23;97196.25;5134900;27;20433;-63
2021/03/23 11:12:35;;;;;;;9.83;6.47;;;;;;;10.69;52.06;97196.03;5127432;27;20416;-63
2021/03/23 11:15:00;;;;;;;7.00;5.13;;;;;;;10.82;51.98;97195.97;5114207;28;20459;-61
2021/03/23 11:17:27;;;;;;;10.70;6.30;;;;;;;10.79;51.93;97202.47;5113621;28;20452;-61
2021/03/23 11:20:00;;;;;;;7.47;6.67;;;;;;;10.79;51.85;97186.72;5114148;28;20188;-63
2021/03/23 11:22:34;;;;;;;8.47;5.93;;;;;;;10.86;52.27;97194.56;5115191;27;20436;-63
2021/03/23 11:25:01;;;;;;;9.40;6.33;;;;;;;10.83;51.52;97195.00;5114534;28;20488;-63
2021/03/23 11:27:27;;;;;;;9.13;6.07;;;;;;;10.95;51.98;97193.31;5124002;27;20916;-62
2021/03/23 11:29:59;;;;;;;8.30;5.93;;;;;;;10.88;50.58;97192.53;5125988;27;20438;-61
2021/03/23 11:32:27;;;;;;;9.50;6.90;;;;;;;10.86;51.26;97187.50;5122805;27;20832;-62
2021/03/23 11:34:53;;;;;;;10.73;7.23;;;;;;;10.75;51.41;97192.56;5133381;27;20424;-61
2021/03/23 11:37:19;;;;;;;10.53;6.97;;;;;;;10.51;52.78;97187.97;5134165;27;20565;-62
2021/03/23 11:39:44;;;;;;;7.73;6.53;;;;;;;10.59;52.09;97190.38;5134381;27;20194;-63
2021/03/23 11:42:22;;;;;;;10.30;5.80;;;;;;;10.62;51.80;97188.16;5132701;27;20407;-61
2021/03/23 11:44:49;;;;;;;8.90;7.30;;;;;;;10.61;51.49;97189.16;5124250;27;20194;-63
2021/03/23 11:47:28;;;;;;;8.67;6.63;;;;;;;10.57;51.95;97187.97;5113402;28;20449;-63
2021/03/23 11:50:13;;;;;;;9.47;7.17;;;;;;;10.77;52.61;97187.91;5113666;28;20426;-61
2021/03/23 11:52:40;;;;;;;7.20;6.03;;;;;;;10.85;52.27;97187.72;5117385;28;20416;-61
2021/03/23 11:55:09;;;;;;;7.73;5.80;;;;;;;10.87;51.96;97185.69;5134243;27;20456;-62